Groton New London Airport
KGON : now visible

Airfield :











YOU CAN JOIN US ON...

 
LOGIN :

Register | Disclaimer

   EN    FR    IT 

 









Legend :    VFR   Marginal VFR   IFR   Intensive IFR   Very Intensive IFR
Visi :
Ceiling :
>= 8 km
>= 3000ft
5 to 8 km
1000 to 3000 ft
1500m to 5 km
500 to 1000 ft
800 to 1500m
200 to 500 ft
< 800m
< 200 ft
Symbols :   Thunderstorms  Fog  Heavy snow  Heavy precipitations  Wind > 20 kt






- Airport Elevation : 9 ft
- IATA code : GON


KGON - Groton New London

CURRENT METAR :
  • 261356Z 18004KT 9SM FEW004 BKN085 BKN110 18/17 A2993 RMK AO2 SLP134 T01780167

EXPIRED METARs :
  • 261340Z 17005KT 9SM SCT006 SCT085 BKN100 18/17 A2993 RMK AO2 T01780167
  • 261303Z 00000KT 10SM OVC006 17/17 A2993 RMK AO2 T01720167
  • 261256Z 00000KT 1SM R05/P6000FT BR OVC006 17/17 A2992 RMK AO2 SLP133 T01720167
  • 261156Z 00000KT 1SM R05/P6000FT BR OVC003 17/16 A2992 RMK AO2 SLP131 T01670161 10167 20144 51011
  • 261110Z 17003KT 1SM R05/P6000FT BR OVC002 16/16 A2991 RMK AO2 T01560156
  • 261056Z 23004KT 1/2SM R05/2000V3500FT FG VV002 15/15 A2991 RMK AO2 SLP128 T01500150
  • 261103Z 20003KT 2SM R05/2000VP6000FT BR OVC002 16/16 A2991 RMK AO2 T01560156
  • 261041Z AUTO 16006KT 1/4SM R05/1200V2200FT FG VV002 15/15 A2990 RMK AO2 T01500150
  • 260956Z AUTO 16003KT M1/4SM R05/0800V1000FT FG VV002 15/15 A2990 RMK AO2 SLP125 T01500150

TAF KGON
Valid from the 26 at 14:00 until the 27 at 12:00 UTC


261428Z 2614/2712 18005KT P6SM FEW004 FEW060
FM262200 16007KT P6SM SCT050
FM270300 VRB04KT 1SM BR BKN003
FM270500 VRB04KT 1/2SM FG BKN003
KZBW FIR / North America



MET'MAP, your aeronautical weather chart ! - Copyright ORBIFLY December 2007 - Disclaimer

ORBIFLY MET'MAP TEAM :

Programming & Development : Alexandra Zaïnal
Original concept : Baudouin d'Aumeries
Technical & hardware support : Manuel Goepfert
Assistance : Marc-Olivier Méhu




SOURCES & CREDITS :

   NOAA       Earth
Advisory